createdAt,value
2023-03-23T15:58:49.499Z,3.80
2023-03-23T16:01:19.555Z,3.50
2023-03-23T16:03:59.426Z,3.65
2023-03-23T16:06:28.721Z,3.58
2023-03-23T16:08:56.541Z,3.85
2023-03-23T16:11:28.836Z,3.75
2023-03-23T16:13:55.798Z,3.50
2023-03-23T16:16:27.353Z,3.33
2023-03-23T16:18:54.792Z,3.40
2023-03-23T16:21:22.483Z,3.25
2023-03-23T16:23:49.154Z,3.10
2023-03-23T16:26:16.628Z,2.90
2023-03-23T16:28:43.896Z,3.03
2023-03-23T16:31:10.705Z,3.47
2023-03-23T16:33:37.563Z,3.00
2023-03-23T16:36:04.721Z,2.67
2023-03-23T16:38:31.516Z,2.63
2023-03-23T16:40:58.196Z,2.50
2023-03-23T16:43:24.724Z,2.78
2023-03-23T16:45:56.092Z,3.10
2023-03-23T16:48:24.845Z,2.72
2023-03-23T16:50:52.301Z,2.50
2023-03-23T16:53:19.115Z,2.50
2023-03-23T16:55:48.404Z,2.63
2023-03-23T16:58:17.369Z,2.30
2023-03-23T17:00:47.524Z,2.80
2023-03-23T17:03:16.370Z,2.53
2023-03-23T17:05:43.654Z,2.60
2023-03-23T17:08:10.785Z,2.63
2023-03-23T17:10:41.396Z,2.70
2023-03-23T17:15:40.671Z,2.63
2023-03-23T17:18:07.907Z,2.38
2023-03-23T17:20:35.466Z,2.42
2023-03-23T17:23:02.878Z,2.85
2023-03-23T17:25:32.651Z,2.70
2023-03-23T17:28:05.881Z,2.03
2023-03-23T17:30:34.195Z,2.42
2023-03-23T17:33:00.797Z,2.20
2023-03-23T17:35:27.556Z,2.13
2023-03-23T17:37:54.294Z,2.20
2023-03-23T17:40:20.903Z,2.10
2023-03-23T17:42:47.429Z,2.00
2023-03-23T17:45:14.165Z,2.00
2023-03-23T17:47:40.913Z,2.00
2023-03-23T17:50:12.284Z,2.28
2023-03-23T17:52:39.837Z,2.58
2023-03-23T17:55:06.966Z,2.30
2023-03-23T17:57:34.275Z,2.10
2023-03-23T18:00:01.174Z,2.20
2023-03-23T18:02:27.837Z,2.53
2023-03-23T18:04:57.529Z,2.60
2023-03-23T18:07:24.532Z,2.60
2023-03-23T18:09:51.032Z,2.67
2023-03-23T18:12:18.309Z,2.28
2023-03-23T18:14:45.346Z,2.20
2023-03-23T18:17:11.915Z,2.70
2023-03-23T18:19:38.525Z,2.30
2023-03-23T18:22:05.551Z,2.38
2023-03-23T18:24:32.079Z,2.72
2023-03-23T18:27:00.243Z,2.83
2023-03-23T18:29:27.558Z,2.60
2023-03-23T18:31:54.117Z,2.58
2023-03-23T18:34:20.954Z,3.08
2023-03-23T18:36:47.592Z,2.95
2023-03-23T18:39:14.191Z,3.00
2023-03-23T18:41:40.967Z,2.90
2023-03-23T18:44:07.660Z,2.78
2023-03-23T18:46:34.254Z,2.83
2023-03-23T18:49:00.904Z,3.17
2023-03-23T18:51:27.550Z,2.85
2023-03-23T18:53:54.162Z,2.92
2023-03-23T18:56:20.853Z,2.88
2023-03-23T18:58:47.815Z,2.95
2023-03-23T19:01:17.043Z,3.17
2023-03-23T19:03:45.388Z,3.35
2023-03-23T19:06:25.812Z,3.20
2023-03-23T19:08:53.552Z,3.22
2023-03-23T19:11:21.989Z,2.65
2023-03-23T19:14:01.553Z,2.70
2023-03-23T19:16:31.249Z,3.40
2023-03-23T19:18:58.134Z,2.95
2023-03-23T19:21:25.605Z,2.97
2023-03-23T19:23:54.158Z,3.40
2023-03-23T19:26:24.437Z,2.88
2023-03-23T19:31:23.660Z,2.88
2023-03-23T19:33:52.369Z,3.53
2023-03-23T19:36:20.413Z,2.60
2023-03-23T19:38:46.972Z,2.95
2023-03-23T19:41:13.709Z,2.85
2023-03-23T19:43:41.763Z,3.20
2023-03-23T19:46:09.806Z,3.47
2023-03-23T19:48:39.117Z,3.60
2023-03-23T19:51:07.271Z,3.25
2023-03-23T19:53:34.275Z,3.03
2023-03-23T19:56:02.929Z,2.95
2023-03-23T19:58:31.476Z,3.20
2023-03-23T20:01:00.526Z,2.70
2023-03-23T20:03:27.304Z,2.65
2023-03-23T20:06:01.311Z,2.67
2023-03-23T20:08:28.011Z,2.70
2023-03-23T20:11:05.726Z,2.60
2023-03-23T20:13:33.118Z,2.72
2023-03-23T20:16:00.938Z,2.83
2023-03-23T20:18:29.863Z,2.58
2023-03-23T20:21:02.513Z,2.40
2023-03-23T20:23:29.398Z,3.03
2023-03-23T20:26:05.963Z,2.50
2023-03-23T20:28:32.572Z,2.90
2023-03-23T20:31:17.005Z,2.50
2023-03-23T20:33:46.367Z,2.60
2023-03-23T20:36:13.409Z,2.63
2023-03-23T20:38:41.783Z,2.58
2023-03-23T20:41:11.588Z,2.55
2023-03-23T20:43:43.696Z,3.13
2023-03-23T20:46:11.144Z,2.80
2023-03-23T20:48:39.942Z,2.58
2023-03-23T20:51:08.666Z,2.67
2023-03-23T20:53:35.636Z,2.67
2023-03-23T20:56:05.510Z,2.55
2023-03-23T20:58:33.477Z,2.78
2023-03-23T21:01:03.021Z,2.60
2023-03-23T21:03:35.964Z,2.42
2023-03-23T21:06:06.936Z,2.60
2023-03-23T21:08:36.597Z,2.95
2023-03-23T21:11:05.649Z,2.95
2023-03-23T21:13:32.856Z,2.70
2023-03-23T21:16:02.134Z,2.90
2023-03-23T21:18:29.090Z,2.80
2023-03-23T21:20:57.254Z,2.65
2023-03-23T21:23:26.692Z,2.83
2023-03-23T21:25:54.619Z,2.90
2023-03-23T21:28:22.161Z,2.45
2023-03-23T21:30:49.542Z,2.80
2023-03-23T21:33:17.153Z,2.50
2023-03-23T21:35:43.717Z,2.63
2023-03-23T21:38:14.554Z,2.47
2023-03-23T21:40:42.134Z,2.63
2023-03-23T21:43:14.709Z,2.45
2023-03-23T21:45:42.668Z,2.47
2023-03-23T21:48:12.098Z,2.55
2023-03-23T21:50:42.417Z,2.60
2023-03-23T21:53:18.247Z,2.65
2023-03-23T21:55:52.776Z,2.47
2023-03-23T21:58:23.933Z,3.08
2023-03-23T22:00:54.107Z,3.08
2023-03-23T22:03:23.520Z,3.15
2023-03-23T22:05:54.875Z,2.40
2023-03-23T22:08:26.971Z,3.38
2023-03-23T22:11:01.918Z,3.35
2023-03-23T22:13:33.343Z,3.17
2023-03-23T22:16:02.044Z,3.00
2023-03-23T22:18:29.163Z,2.72
2023-03-23T22:20:57.158Z,3.08
2023-03-23T22:23:23.792Z,2.63
2023-03-23T22:25:50.321Z,2.67
2023-03-23T22:28:19.641Z,2.47
2023-03-23T22:30:47.407Z,2.92
2023-03-23T22:33:14.211Z,2.72
2023-03-23T22:35:40.897Z,2.88
2023-03-23T22:38:07.490Z,2.88
2023-03-23T22:40:34.238Z,3.08
2023-03-23T22:43:00.979Z,2.83
2023-03-23T22:45:28.175Z,2.75
2023-03-23T22:47:55.192Z,2.70
2023-03-23T22:50:24.173Z,2.33
2023-03-23T22:52:51.018Z,2.60
2023-03-23T22:55:17.637Z,2.70
2023-03-23T22:57:44.218Z,3.00
2023-03-23T23:00:14.530Z,2.60
2023-03-23T23:02:42.465Z,2.47
2023-03-23T23:05:10.162Z,2.42
2023-03-23T23:07:37.229Z,2.35
2023-03-23T23:10:04.857Z,2.47
2023-03-23T23:12:31.793Z,2.60
2023-03-23T23:14:58.861Z,2.70
2023-03-23T23:17:26.622Z,2.35
2023-03-23T23:19:57.496Z,2.72
2023-03-23T23:22:24.155Z,2.30
2023-03-23T23:24:50.869Z,2.33
2023-03-23T23:27:18.219Z,2.03
2023-03-23T23:29:44.974Z,2.15
2023-03-23T23:32:11.523Z,2.45
2023-03-23T23:34:38.329Z,1.98
2023-03-23T23:37:06.169Z,2.30
2023-03-23T23:39:32.756Z,1.90
2023-03-23T23:41:59.449Z,2.00
2023-03-23T23:44:26.048Z,2.20
2023-03-23T23:46:52.583Z,1.40
2023-03-23T23:49:23.001Z,1.80
2023-03-23T23:51:49.673Z,1.50
2023-03-23T23:54:22.632Z,1.52
2023-03-23T23:56:51.028Z,1.17
2023-03-23T23:59:17.745Z,1.20
